sensor_id;sensor_type;location;lat;lon;timestamp;temperature;humidity
15083;DHT22;7640;53.116;6.878;2022-08-03T00:02:16;21.00;99.90
15083;DHT22;7640;53.116;6.878;2022-08-03T00:04:44;21.00;99.90
15083;DHT22;7640;53.116;6.878;2022-08-03T00:07:12;21.00;99.90
15083;DHT22;7640;53.116;6.878;2022-08-03T00:09:43;21.00;99.90
15083;DHT22;7640;53.116;6.878;2022-08-03T00:12:11;20.90;99.90
15083;DHT22;7640;53.116;6.878;2022-08-03T00:14:40;20.90;99.90
15083;DHT22;7640;53.116;6.878;2022-08-03T00:17:09;20.90;99.90
15083;DHT22;7640;53.116;6.878;2022-08-03T00:19:37;20.90;99.90
15083;DHT22;7640;53.116;6.878;2022-08-03T00:22:05;20.90;99.90
15083;DHT22;7640;53.116;6.878;2022-08-03T00:24:35;20.80;99.90
15083;DHT22;7640;53.116;6.878;2022-08-03T00:27:03;20.80;99.90
15083;DHT22;7640;53.116;6.878;2022-08-03T00:29:31;20.80;99.90
15083;DHT22;7640;53.116;6.878;2022-08-03T00:32:19;20.80;99.90
15083;DHT22;7640;53.116;6.878;2022-08-03T00:34:50;20.70;99.90
15083;DHT22;7640;53.116;6.878;2022-08-03T00:37:24;20.70;99.90
15083;DHT22;7640;53.116;6.878;2022-08-03T00:40:10;20.70;99.90
15083;DHT22;7640;53.116;6.878;2022-08-03T00:42:46;20.70;99.90
15083;DHT22;7640;53.116;6.878;2022-08-03T00:45:17;20.70;99.90
15083;DHT22;7640;53.116;6.878;2022-08-03T00:47:45;20.60;99.90
15083;DHT22;7640;53.116;6.878;2022-08-03T00:50:14;20.60;99.90
15083;DHT22;7640;53.116;6.878;2022-08-03T00:52:43;20.60;99.90
15083;DHT22;7640;53.116;6.878;2022-08-03T00:55:13;20.60;99.90
15083;DHT22;7640;53.116;6.878;2022-08-03T00:57:42;20.60;99.90
15083;DHT22;7640;53.116;6.878;2022-08-03T01:00:12;20.60;99.90
15083;DHT22;7640;53.116;6.878;2022-08-03T01:02:42;20.60;99.90
15083;DHT22;7640;53.116;6.878;2022-08-03T01:05:11;20.60;99.90
15083;DHT22;7640;53.116;6.878;2022-08-03T01:07:52;20.60;99.90
15083;DHT22;7640;53.116;6.878;2022-08-03T01:10:40;20.60;99.90
15083;DHT22;7640;53.116;6.878;2022-08-03T01:13:21;20.60;99.90
15083;DHT22;7640;53.116;6.878;2022-08-03T01:16:18;20.60;99.90
15083;DHT22;7640;53.116;6.878;2022-08-03T01:19:12;20.50;99.90
15083;DHT22;7640;53.116;6.878;2022-08-03T01:22:02;20.50;99.90
15083;DHT22;7640;53.116;6.878;2022-08-03T01:24:43;20.50;99.90
15083;DHT22;7640;53.116;6.878;2022-08-03T01:27:22;20.50;99.90
15083;DHT22;7640;53.116;6.878;2022-08-03T01:30:04;20.50;99.90
15083;DHT22;7640;53.116;6.878;2022-08-03T01:32:38;20.50;99.90
15083;DHT22;7640;53.116;6.878;2022-08-03T01:35:32;20.50;99.90
15083;DHT22;7640;53.116;6.878;2022-08-03T01:38:09;20.50;99.90
15083;DHT22;7640;53.116;6.878;2022-08-03T01:40:40;20.50;99.90
15083;DHT22;7640;53.116;6.878;2022-08-03T01:43:13;20.50;99.90
15083;DHT22;7640;53.116;6.878;2022-08-03T01:46:06;20.50;99.90
15083;DHT22;7640;53.116;6.878;2022-08-03T01:48:36;20.50;99.90
15083;DHT22;7640;53.116;6.878;2022-08-03T01:51:05;20.50;99.90
15083;DHT22;7640;53.116;6.878;2022-08-03T01:53:36;20.50;99.90
15083;DHT22;7640;53.116;6.878;2022-08-03T01:56:05;20.50;99.90
15083;DHT22;7640;53.116;6.878;2022-08-03T01:58:35;20.50;99.90
15083;DHT22;7640;53.116;6.878;2022-08-03T02:01:06;20.50;99.90
15083;DHT22;7640;53.116;6.878;2022-08-03T02:03:39;20.50;99.90
15083;DHT22;7640;53.116;6.878;2022-08-03T02:06:29;20.50;99.90
15083;DHT22;7640;53.116;6.878;2022-08-03T02:09:20;20.40;99.90
15083;DHT22;7640;53.116;6.878;2022-08-03T02:11:50;20.40;99.90
15083;DHT22;7640;53.116;6.878;2022-08-03T02:14:19;20.40;99.90
15083;DHT22;7640;53.116;6.878;2022-08-03T02:16:50;20.40;99.90
15083;DHT22;7640;53.116;6.878;2022-08-03T02:19:18;20.40;99.90
15083;DHT22;7640;53.116;6.878;2022-08-03T02:21:48;20.40;99.90
15083;DHT22;7640;53.116;6.878;2022-08-03T02:24:27;20.30;99.90
15083;DHT22;7640;53.116;6.878;2022-08-03T02:26:56;20.30;99.90
15083;DHT22;7640;53.116;6.878;2022-08-03T02:29:30;20.30;99.90
15083;DHT22;7640;53.116;6.878;2022-08-03T02:32:09;20.20;99.90
15083;DHT22;7640;53.116;6.878;2022-08-03T02:34:49;20.20;99.90
15083;DHT22;7640;53.116;6.878;2022-08-03T02:37:20;20.20;99.90
15083;DHT22;7640;53.116;6.878;2022-08-03T02:39:55;20.20;99.90
15083;DHT22;7640;53.116;6.878;2022-08-03T02:42:26;20.10;99.90
15083;DHT22;7640;53.116;6.878;2022-08-03T02:44:57;20.10;99.90
15083;DHT22;7640;53.116;6.878;2022-08-03T02:47:28;20.10;99.90
15083;DHT22;7640;53.116;6.878;2022-08-03T02:50:18;20.10;99.90
15083;DHT22;7640;53.116;6.878;2022-08-03T02:52:48;20.10;99.90
15083;DHT22;7640;53.116;6.878;2022-08-03T02:55:19;20.10;99.90
15083;DHT22;7640;53.116;6.878;2022-08-03T02:57:49;20.10;99.90
15083;DHT22;7640;53.116;6.878;2022-08-03T03:00:18;20.10;99.90
15083;DHT22;7640;53.116;6.878;2022-08-03T03:02:56;20.10;99.90
15083;DHT22;7640;53.116;6.878;2022-08-03T03:05:26;20.10;99.90
15083;DHT22;7640;53.116;6.878;2022-08-03T03:08:17;19.90;99.90
15083;DHT22;7640;53.116;6.878;2022-08-03T03:10:54;20.00;99.90
15083;DHT22;7640;53.116;6.878;2022-08-03T03:13:24;20.00;99.90
15083;DHT22;7640;53.116;6.878;2022-08-03T03:15:56;20.00;99.90
15083;DHT22;7640;53.116;6.878;2022-08-03T03:18:30;20.00;99.90
15083;DHT22;7640;53.116;6.878;2022-08-03T03:21:00;20.00;99.90
15083;DHT22;7640;53.116;6.878;2022-08-03T03:23:30;20.00;99.90
15083;DHT22;7640;53.116;6.878;2022-08-03T03:26:00;20.00;99.90
15083;DHT22;7640;53.116;6.878;2022-08-03T03:28:29;19.90;99.90
15083;DHT22;7640;53.116;6.878;2022-08-03T03:30:58;20.00;99.90
15083;DHT22;7640;53.116;6.878;2022-08-03T03:33:29;20.00;99.90
15083;DHT22;7640;53.116;6.878;2022-08-03T03:35:58;20.00;99.90
15083;DHT22;7640;53.116;6.878;2022-08-03T03:38:27;19.90;99.90
15083;DHT22;7640;53.116;6.878;2022-08-03T03:40:55;19.90;99.90
15083;DHT22;7640;53.116;6.878;2022-08-03T03:43:24;20.00;99.90
15083;DHT22;7640;53.116;6.878;2022-08-03T03:45:53;19.90;99.90
15083;DHT22;7640;53.116;6.878;2022-08-03T03:48:21;19.90;99.90
15083;DHT22;7640;53.116;6.878;2022-08-03T03:50:52;19.90;99.90
15083;DHT22;7640;53.116;6.878;2022-08-03T03:53:23;19.90;99.90
15083;DHT22;7640;53.116;6.878;2022-08-03T03:55:51;19.90;99.90
15083;DHT22;7640;53.116;6.878;2022-08-03T03:58:28;19.90;99.90
15083;DHT22;7640;53.116;6.878;2022-08-03T04:00:57;19.90;99.90
15083;DHT22;7640;53.116;6.878;2022-08-03T04:03:26;19.80;99.90
15083;DHT22;7640;53.116;6.878;2022-08-03T04:05:56;19.80;99.90
15083;DHT22;7640;53.116;6.878;2022-08-03T04:08:42;19.80;99.90
15083;DHT22;7640;53.116;6.878;2022-08-03T04:11:44;19.80;99.90
15083;DHT22;7640;53.116;6.878;2022-08-03T04:14:21;19.80;99.90
15083;DHT22;7640;53.116;6.878;2022-08-03T04:16:53;19.80;99.90
15083;DHT22;7640;53.116;6.878;2022-08-03T04:19:29;19.70;99.90
15083;DHT22;7640;53.116;6.878;2022-08-03T04:22:03;19.80;99.90
15083;DHT22;7640;53.116;6.878;2022-08-03T04:24:39;19.70;99.90
15083;DHT22;7640;53.116;6.878;2022-08-03T04:27:11;19.70;99.90
15083;DHT22;7640;53.116;6.878;2022-08-03T04:29:45;19.70;99.90
15083;DHT22;7640;53.116;6.878;2022-08-03T04:32:15;19.80;99.90
15083;DHT22;7640;53.116;6.878;2022-08-03T04:34:44;19.80;99.90
15083;DHT22;7640;53.116;6.878;2022-08-03T04:37:20;19.80;99.90
15083;DHT22;7640;53.116;6.878;2022-08-03T04:39:56;19.80;99.90
15083;DHT22;7640;53.116;6.878;2022-08-03T04:42:28;19.80;99.90
15083;DHT22;7640;53.116;6.878;2022-08-03T04:44:58;19.80;99.90
15083;DHT22;7640;53.116;6.878;2022-08-03T04:47:28;19.80;99.90
15083;DHT22;7640;53.116;6.878;2022-08-03T04:49:59;19.90;99.90
15083;DHT22;7640;53.116;6.878;2022-08-03T04:52:29;19.90;99.90
15083;DHT22;7640;53.116;6.878;2022-08-03T04:54:58;19.90;99.90
15083;DHT22;7640;53.116;6.878;2022-08-03T04:57:26;20.00;99.90
15083;DHT22;7640;53.116;6.878;2022-08-03T04:59:54;20.00;99.90
15083;DHT22;7640;53.116;6.878;2022-08-03T05:02:29;20.00;99.90
15083;DHT22;7640;53.116;6.878;2022-08-03T05:04:58;20.00;99.90
15083;DHT22;7640;53.116;6.878;2022-08-03T05:07:26;20.10;99.90
15083;DHT22;7640;53.116;6.878;2022-08-03T05:10:04;20.10;99.90
15083;DHT22;7640;53.116;6.878;2022-08-03T05:12:43;20.20;99.90
15083;DHT22;7640;53.116;6.878;2022-08-03T05:15:12;20.20;99.90
15083;DHT22;7640;53.116;6.878;2022-08-03T05:17:41;20.30;99.90
15083;DHT22;7640;53.116;6.878;2022-08-03T05:20:10;19.90;99.90
15083;DHT22;7640;53.116;6.878;2022-08-03T05:22:38;20.40;99.90
15083;DHT22;7640;53.116;6.878;2022-08-03T05:25:08;20.40;99.90
15083;DHT22;7640;53.116;6.878;2022-08-03T05:27:46;20.50;99.90
15083;DHT22;7640;53.116;6.878;2022-08-03T05:30:14;20.50;99.90
15083;DHT22;7640;53.116;6.878;2022-08-03T05:33:00;20.50;99.90
15083;DHT22;7640;53.116;6.878;2022-08-03T05:35:29;20.60;99.90
15083;DHT22;7640;53.116;6.878;2022-08-03T05:38:18;20.70;99.90
15083;DHT22;7640;53.116;6.878;2022-08-03T05:40:56;20.70;99.90
15083;DHT22;7640;53.116;6.878;2022-08-03T05:43:45;20.80;99.90
15083;DHT22;7640;53.116;6.878;2022-08-03T05:46:13;20.80;99.90
15083;DHT22;7640;53.116;6.878;2022-08-03T05:48:42;20.90;99.90
15083;DHT22;7640;53.116;6.878;2022-08-03T05:51:10;20.90;99.90
15083;DHT22;7640;53.116;6.878;2022-08-03T05:53:40;20.90;99.90
15083;DHT22;7640;53.116;6.878;2022-08-03T05:56:11;21.00;99.90
15083;DHT22;7640;53.116;6.878;2022-08-03T05:58:43;21.10;99.90
15083;DHT22;7640;53.116;6.878;2022-08-03T06:01:12;21.10;99.90
15083;DHT22;7640;53.116;6.878;2022-08-03T06:03:41;21.20;99.90
15083;DHT22;7640;53.116;6.878;2022-08-03T06:06:09;21.30;99.90
15083;DHT22;7640;53.116;6.878;2022-08-03T06:08:38;21.40;99.90
15083;DHT22;7640;53.116;6.878;2022-08-03T06:11:06;21.40;99.90
15083;DHT22;7640;53.116;6.878;2022-08-03T06:13:37;21.40;99.90
15083;DHT22;7640;53.116;6.878;2022-08-03T06:16:05;21.50;99.90
15083;DHT22;7640;53.116;6.878;2022-08-03T06:18:34;21.60;99.90
15083;DHT22;7640;53.116;6.878;2022-08-03T06:21:03;21.60;99.90
15083;DHT22;7640;53.116;6.878;2022-08-03T06:23:44;21.70;99.90
15083;DHT22;7640;53.116;6.878;2022-08-03T06:26:22;21.70;99.90
15083;DHT22;7640;53.116;6.878;2022-08-03T06:28:52;21.70;99.90
15083;DHT22;7640;53.116;6.878;2022-08-03T06:31:23;21.80;99.90
15083;DHT22;7640;53.116;6.878;2022-08-03T06:34:00;21.80;99.90
15083;DHT22;7640;53.116;6.878;2022-08-03T06:36:49;21.90;99.90
15083;DHT22;7640;53.116;6.878;2022-08-03T06:39:27;21.90;99.90
15083;DHT22;7640;53.116;6.878;2022-08-03T06:41:56;22.00;99.90
15083;DHT22;7640;53.116;6.878;2022-08-03T06:44:26;22.10;99.90
15083;DHT22;7640;53.116;6.878;2022-08-03T06:46:54;22.10;99.90
15083;DHT22;7640;53.116;6.878;2022-08-03T06:49:22;22.20;99.90
15083;DHT22;7640;53.116;6.878;2022-08-03T06:51:51;22.30;99.90
15083;DHT22;7640;53.116;6.878;2022-08-03T06:54:32;22.40;99.90
15083;DHT22;7640;53.116;6.878;2022-08-03T06:57:02;22.40;99.90
15083;DHT22;7640;53.116;6.878;2022-08-03T06:59:33;22.50;99.90
15083;DHT22;7640;53.116;6.878;2022-08-03T07:02:21;22.60;99.90
15083;DHT22;7640;53.116;6.878;2022-08-03T07:04:53;22.60;99.90
15083;DHT22;7640;53.116;6.878;2022-08-03T07:07:22;22.70;99.90
15083;DHT22;7640;53.116;6.878;2022-08-03T07:09:50;22.70;99.90
15083;DHT22;7640;53.116;6.878;2022-08-03T07:12:27;22.80;99.90
15083;DHT22;7640;53.116;6.878;2022-08-03T07:14:58;22.80;99.90
15083;DHT22;7640;53.116;6.878;2022-08-03T07:17:30;22.90;99.90
15083;DHT22;7640;53.116;6.878;2022-08-03T07:20:01;22.90;99.90
15083;DHT22;7640;53.116;6.878;2022-08-03T07:22:31;23.00;99.90
15083;DHT22;7640;53.116;6.878;2022-08-03T07:24:59;23.00;99.90
15083;DHT22;7640;53.116;6.878;2022-08-03T07:27:28;23.10;99.90
15083;DHT22;7640;53.116;6.878;2022-08-03T07:29:58;23.20;99.90
15083;DHT22;7640;53.116;6.878;2022-08-03T07:32:27;23.20;99.90
15083;DHT22;7640;53.116;6.878;2022-08-03T07:34:57;23.30;99.90
15083;DHT22;7640;53.116;6.878;2022-08-03T07:37:28;23.30;99.90
15083;DHT22;7640;53.116;6.878;2022-08-03T07:39:56;23.40;99.90
15083;DHT22;7640;53.116;6.878;2022-08-03T07:42:25;23.40;99.90
15083;DHT22;7640;53.116;6.878;2022-08-03T07:44:53;23.50;99.90
15083;DHT22;7640;53.116;6.878;2022-08-03T07:47:25;23.60;99.90
15083;DHT22;7640;53.116;6.878;2022-08-03T07:50:02;23.70;99.90
15083;DHT22;7640;53.116;6.878;2022-08-03T07:52:34;23.80;99.90
15083;DHT22;7640;53.116;6.878;2022-08-03T07:55:15;23.90;99.90
15083;DHT22;7640;53.116;6.878;2022-08-03T07:57:44;24.00;99.90
15083;DHT22;7640;53.116;6.878;2022-08-03T08:00:15;24.10;99.90
15083;DHT22;7640;53.116;6.878;2022-08-03T08:02:46;24.20;99.90
15083;DHT22;7640;53.116;6.878;2022-08-03T08:05:14;24.30;99.90
15083;DHT22;7640;53.116;6.878;2022-08-03T08:07:42;24.40;99.90
15083;DHT22;7640;53.116;6.878;2022-08-03T08:10:17;24.40;99.90
15083;DHT22;7640;53.116;6.878;2022-08-03T08:12:45;24.50;99.90
15083;DHT22;7640;53.116;6.878;2022-08-03T08:15:14;24.70;99.90
15083;DHT22;7640;53.116;6.878;2022-08-03T08:17:43;24.80;99.90
15083;DHT22;7640;53.116;6.878;2022-08-03T08:20:19;24.90;99.90
15083;DHT22;7640;53.116;6.878;2022-08-03T08:22:54;25.00;99.90
15083;DHT22;7640;53.116;6.878;2022-08-03T08:25:27;25.10;99.90
15083;DHT22;7640;53.116;6.878;2022-08-03T08:27:57;25.20;99.90
15083;DHT22;7640;53.116;6.878;2022-08-03T08:30:48;25.30;99.90
15083;DHT22;7640;53.116;6.878;2022-08-03T08:33:18;25.30;99.90
15083;DHT22;7640;53.116;6.878;2022-08-03T08:35:49;25.40;99.90
15083;DHT22;7640;53.116;6.878;2022-08-03T08:38:19;25.50;99.90
15083;DHT22;7640;53.116;6.878;2022-08-03T08:40:48;25.60;99.90
15083;DHT22;7640;53.116;6.878;2022-08-03T08:43:16;25.70;99.90
15083;DHT22;7640;53.116;6.878;2022-08-03T08:45:46;25.70;99.90
15083;DHT22;7640;53.116;6.878;2022-08-03T08:48:21;25.70;99.90
15083;DHT22;7640;53.116;6.878;2022-08-03T08:50:52;25.80;99.90
15083;DHT22;7640;53.116;6.878;2022-08-03T08:53:21;25.80;99.90
15083;DHT22;7640;53.116;6.878;2022-08-03T08:55:54;25.80;99.90
15083;DHT22;7640;53.116;6.878;2022-08-03T08:58:29;25.90;99.90
15083;DHT22;7640;53.116;6.878;2022-08-03T09:01:01;26.00;99.90
15083;DHT22;7640;53.116;6.878;2022-08-03T09:03:33;26.10;99.90
15083;DHT22;7640;53.116;6.878;2022-08-03T09:06:03;26.10;99.90
15083;DHT22;7640;53.116;6.878;2022-08-03T09:08:32;26.20;99.90
15083;DHT22;7640;53.116;6.878;2022-08-03T09:11:01;26.30;99.90
15083;DHT22;7640;53.116;6.878;2022-08-03T09:13:38;26.50;99.90
15083;DHT22;7640;53.116;6.878;2022-08-03T09:16:12;26.50;99.90
15083;DHT22;7640;53.116;6.878;2022-08-03T09:18:43;26.50;99.90
15083;DHT22;7640;53.116;6.878;2022-08-03T09:21:16;26.60;99.90
15083;DHT22;7640;53.116;6.878;2022-08-03T09:24:05;26.60;99.90
15083;DHT22;7640;53.116;6.878;2022-08-03T09:26:51;26.80;99.90
15083;DHT22;7640;53.116;6.878;2022-08-03T09:29:20;26.90;99.90
15083;DHT22;7640;53.116;6.878;2022-08-03T09:31:59;27.10;99.90
15083;DHT22;7640;53.116;6.878;2022-08-03T09:34:30;27.40;99.90
15083;DHT22;7640;53.116;6.878;2022-08-03T09:36:58;27.60;99.90
15083;DHT22;7640;53.116;6.878;2022-08-03T09:39:27;27.80;99.90
15083;DHT22;7640;53.116;6.878;2022-08-03T09:42:09;27.90;99.90
15083;DHT22;7640;53.116;6.878;2022-08-03T09:44:43;28.00;99.90
15083;DHT22;7640;53.116;6.878;2022-08-03T09:47:15;28.10;99.90
15083;DHT22;7640;53.116;6.878;2022-08-03T09:50:00;28.10;99.90
15083;DHT22;7640;53.116;6.878;2022-08-03T09:52:31;28.20;99.90
15083;DHT22;7640;53.116;6.878;2022-08-03T09:55:15;28.20;99.90
15083;DHT22;7640;53.116;6.878;2022-08-03T09:58:06;28.30;99.90
15083;DHT22;7640;53.116;6.878;2022-08-03T10:00:52;28.30;99.90
15083;DHT22;7640;53.116;6.878;2022-08-03T10:03:22;28.40;99.90
15083;DHT22;7640;53.116;6.878;2022-08-03T10:05:52;28.50;99.90
15083;DHT22;7640;53.116;6.878;2022-08-03T10:08:25;28.60;99.90
15083;DHT22;7640;53.116;6.878;2022-08-03T10:10:54;28.70;99.90
15083;DHT22;7640;53.116;6.878;2022-08-03T10:13:26;28.70;99.90
15083;DHT22;7640;53.116;6.878;2022-08-03T10:15:54;28.70;99.90
15083;DHT22;7640;53.116;6.878;2022-08-03T10:18:42;28.80;99.90
15083;DHT22;7640;53.116;6.878;2022-08-03T10:21:16;29.00;99.90
15083;DHT22;7640;53.116;6.878;2022-08-03T10:23:46;29.10;99.90
15083;DHT22;7640;53.116;6.878;2022-08-03T10:26:18;29.10;99.90
15083;DHT22;7640;53.116;6.878;2022-08-03T10:28:52;29.20;99.90
15083;DHT22;7640;53.116;6.878;2022-08-03T10:31:22;29.20;99.90
15083;DHT22;7640;53.116;6.878;2022-08-03T10:33:51;29.30;99.90
15083;DHT22;7640;53.116;6.878;2022-08-03T10:36:26;29.30;99.90
15083;DHT22;7640;53.116;6.878;2022-08-03T10:38:59;29.20;99.90
15083;DHT22;7640;53.116;6.878;2022-08-03T10:41:32;29.50;99.90
15083;DHT22;7640;53.116;6.878;2022-08-03T10:44:07;29.60;99.90
15083;DHT22;7640;53.116;6.878;2022-08-03T10:46:38;29.70;99.90
15083;DHT22;7640;53.116;6.878;2022-08-03T10:49:12;29.70;99.90
15083;DHT22;7640;53.116;6.878;2022-08-03T10:51:44;29.60;99.90
15083;DHT22;7640;53.116;6.878;2022-08-03T10:54:37;29.50;99.90
15083;DHT22;7640;53.116;6.878;2022-08-03T10:57:45;29.40;99.90
15083;DHT22;7640;53.116;6.878;2022-08-03T11:00:16;29.30;99.90
15083;DHT22;7640;53.116;6.878;2022-08-03T11:03:08;29.30;99.90
15083;DHT22;7640;53.116;6.878;2022-08-03T11:05:40;29.30;99.90
15083;DHT22;7640;53.116;6.878;2022-08-03T11:08:31;29.30;99.90
15083;DHT22;7640;53.116;6.878;2022-08-03T11:13:58;29.60;99.90
15083;DHT22;7640;53.116;6.878;2022-08-03T11:16:30;29.90;99.90
15083;DHT22;7640;53.116;6.878;2022-08-03T11:19:02;30.10;99.90
15083;DHT22;7640;53.116;6.878;2022-08-03T11:21:56;30.30;99.90
15083;DHT22;7640;53.116;6.878;2022-08-03T11:25:00;30.40;99.90
15083;DHT22;7640;53.116;6.878;2022-08-03T11:27:30;30.50;99.90
15083;DHT22;7640;53.116;6.878;2022-08-03T11:30:03;30.60;99.90
15083;DHT22;7640;53.116;6.878;2022-08-03T11:32:52;30.80;99.90
15083;DHT22;7640;53.116;6.878;2022-08-03T11:35:26;30.90;99.90
15083;DHT22;7640;53.116;6.878;2022-08-03T11:38:16;31.10;99.90
15083;DHT22;7640;53.116;6.878;2022-08-03T11:40:53;31.20;99.90
15083;DHT22;7640;53.116;6.878;2022-08-03T11:43:51;31.30;99.90
15083;DHT22;7640;53.116;6.878;2022-08-03T11:46:19;31.40;99.90
15083;DHT22;7640;53.116;6.878;2022-08-03T11:49:03;31.50;99.90
15083;DHT22;7640;53.116;6.878;2022-08-03T11:51:37;31.70;99.90
15083;DHT22;7640;53.116;6.878;2022-08-03T11:54:06;31.90;99.90
15083;DHT22;7640;53.116;6.878;2022-08-03T11:56:46;32.10;99.90
15083;DHT22;7640;53.116;6.878;2022-08-03T11:59:15;32.20;99.90
15083;DHT22;7640;53.116;6.878;2022-08-03T12:01:48;32.40;99.90
15083;DHT22;7640;53.116;6.878;2022-08-03T12:04:16;32.50;99.90
15083;DHT22;7640;53.116;6.878;2022-08-03T12:06:57;32.40;99.90
15083;DHT22;7640;53.116;6.878;2022-08-03T12:09:26;32.50;99.90
15083;DHT22;7640;53.116;6.878;2022-08-03T12:11:56;32.60;99.90
15083;DHT22;7640;53.116;6.878;2022-08-03T12:14:27;32.80;99.90
15083;DHT22;7640;53.116;6.878;2022-08-03T12:17:16;33.20;99.90
15083;DHT22;7640;53.116;6.878;2022-08-03T12:19:45;33.40;99.90
15083;DHT22;7640;53.116;6.878;2022-08-03T12:22:13;33.60;99.90
15083;DHT22;7640;53.116;6.878;2022-08-03T12:24:43;33.60;99.90
15083;DHT22;7640;53.116;6.878;2022-08-03T12:27:23;33.80;99.80
15083;DHT22;7640;53.116;6.878;2022-08-03T12:29:53;34.00;98.60
15083;DHT22;7640;53.116;6.878;2022-08-03T12:32:25;34.20;99.10
15083;DHT22;7640;53.116;6.878;2022-08-03T12:34:54;34.30;97.40
15083;DHT22;7640;53.116;6.878;2022-08-03T12:37:26;34.30;96.60
15083;DHT22;7640;53.116;6.878;2022-08-03T12:39:57;34.30;96.00
15083;DHT22;7640;53.116;6.878;2022-08-03T12:42:38;34.30;95.70
15083;DHT22;7640;53.116;6.878;2022-08-03T12:45:27;34.50;95.20
15083;DHT22;7640;53.116;6.878;2022-08-03T12:47:59;34.50;94.10
15083;DHT22;7640;53.116;6.878;2022-08-03T12:50:29;34.50;94.40
15083;DHT22;7640;53.116;6.878;2022-08-03T12:52:59;34.70;94.20
15083;DHT22;7640;53.116;6.878;2022-08-03T12:55:30;34.90;93.90
15083;DHT22;7640;53.116;6.878;2022-08-03T12:58:31;35.00;93.20
15083;DHT22;7640;53.116;6.878;2022-08-03T13:01:03;35.00;92.30
15083;DHT22;7640;53.116;6.878;2022-08-03T13:03:40;35.30;92.30
15083;DHT22;7640;53.116;6.878;2022-08-03T13:06:17;35.60;91.90
15083;DHT22;7640;53.116;6.878;2022-08-03T13:08:46;35.80;90.80
15083;DHT22;7640;53.116;6.878;2022-08-03T13:11:21;36.00;90.60
15083;DHT22;7640;53.116;6.878;2022-08-03T13:14:12;36.20;89.30
15083;DHT22;7640;53.116;6.878;2022-08-03T13:16:46;36.50;88.60
15083;DHT22;7640;53.116;6.878;2022-08-03T13:19:15;36.80;84.30
15083;DHT22;7640;53.116;6.878;2022-08-03T13:21:43;36.80;81.70
15083;DHT22;7640;53.116;6.878;2022-08-03T13:24:32;36.70;81.10
15083;DHT22;7640;53.116;6.878;2022-08-03T13:27:02;36.60;80.40
15083;DHT22;7640;53.116;6.878;2022-08-03T13:29:54;36.50;79.70
15083;DHT22;7640;53.116;6.878;2022-08-03T13:32:22;36.50;79.70
15083;DHT22;7640;53.116;6.878;2022-08-03T13:34:51;36.60;80.00
15083;DHT22;7640;53.116;6.878;2022-08-03T13:37:19;36.80;78.70
15083;DHT22;7640;53.116;6.878;2022-08-03T13:39:48;36.90;78.50
15083;DHT22;7640;53.116;6.878;2022-08-03T13:42:27;37.00;77.80
15083;DHT22;7640;53.116;6.878;2022-08-03T13:44:58;37.00;76.10
15083;DHT22;7640;53.116;6.878;2022-08-03T13:47:27;37.00;75.50
15083;DHT22;7640;53.116;6.878;2022-08-03T13:49:55;37.10;76.90
15083;DHT22;7640;53.116;6.878;2022-08-03T13:52:30;37.20;75.20
15083;DHT22;7640;53.116;6.878;2022-08-03T13:54:59;37.10;74.10
15083;DHT22;7640;53.116;6.878;2022-08-03T13:57:27;37.10;73.90
15083;DHT22;7640;53.116;6.878;2022-08-03T14:00:18;36.80;72.80
15083;DHT22;7640;53.116;6.878;2022-08-03T14:02:59;36.50;74.90
15083;DHT22;7640;53.116;6.878;2022-08-03T14:05:39;36.40;75.00
15083;DHT22;7640;53.116;6.878;2022-08-03T14:08:07;36.40;74.70
15083;DHT22;7640;53.116;6.878;2022-08-03T14:10:37;36.30;74.40
15083;DHT22;7640;53.116;6.878;2022-08-03T14:13:09;36.10;74.60
15083;DHT22;7640;53.116;6.878;2022-08-03T14:15:39;36.00;75.50
15083;DHT22;7640;53.116;6.878;2022-08-03T14:18:16;35.90;76.40
15083;DHT22;7640;53.116;6.878;2022-08-03T14:20:56;36.10;77.60
15083;DHT22;7640;53.116;6.878;2022-08-03T14:23:31;36.30;78.20
15083;DHT22;7640;53.116;6.878;2022-08-03T14:25:59;36.40;77.10
15083;DHT22;7640;53.116;6.878;2022-08-03T14:28:27;36.60;77.40
15083;DHT22;7640;53.116;6.878;2022-08-03T14:30:57;36.60;76.70
15083;DHT22;7640;53.116;6.878;2022-08-03T14:33:25;36.50;77.30
15083;DHT22;7640;53.116;6.878;2022-08-03T14:35:55;36.70;77.90
15083;DHT22;7640;53.116;6.878;2022-08-03T14:38:26;36.80;77.50
15083;DHT22;7640;53.116;6.878;2022-08-03T14:40:54;37.00;76.60
15083;DHT22;7640;53.116;6.878;2022-08-03T14:43:23;37.10;76.40
15083;DHT22;7640;53.116;6.878;2022-08-03T14:46:01;37.10;76.90
15083;DHT22;7640;53.116;6.878;2022-08-03T14:48:29;37.40;76.30
15083;DHT22;7640;53.116;6.878;2022-08-03T14:51:17;37.50;74.90
15083;DHT22;7640;53.116;6.878;2022-08-03T14:53:46;37.40;74.80
15083;DHT22;7640;53.116;6.878;2022-08-03T14:56:14;37.30;74.70
15083;DHT22;7640;53.116;6.878;2022-08-03T14:58:49;37.30;74.80
15083;DHT22;7640;53.116;6.878;2022-08-03T15:01:34;37.40;74.70
15083;DHT22;7640;53.116;6.878;2022-08-03T15:04:26;37.60;75.10
15083;DHT22;7640;53.116;6.878;2022-08-03T15:08:52;38.10;74.40
15083;DHT22;7640;53.116;6.878;2022-08-03T15:10:57;38.60;72.90
15083;DHT22;7640;53.116;6.878;2022-08-03T15:13:25;38.90;72.60
15083;DHT22;7640;53.116;6.878;2022-08-03T15:15:54;39.20;72.10
15083;DHT22;7640;53.116;6.878;2022-08-03T15:18:24;39.20;69.90
15083;DHT22;7640;53.116;6.878;2022-08-03T15:20:52;39.00;70.70
15083;DHT22;7640;53.116;6.878;2022-08-03T15:23:20;38.90;69.30
15083;DHT22;7640;53.116;6.878;2022-08-03T15:25:49;38.50;69.00
15083;DHT22;7640;53.116;6.878;2022-08-03T15:28:37;38.30;69.70
15083;DHT22;7640;53.116;6.878;2022-08-03T15:31:06;38.20;69.90
15083;DHT22;7640;53.116;6.878;2022-08-03T15:34:01;38.20;70.00
15083;DHT22;7640;53.116;6.878;2022-08-03T15:36:31;38.10;69.60
15083;DHT22;7640;53.116;6.878;2022-08-03T15:38:59;38.00;69.90
15083;DHT22;7640;53.116;6.878;2022-08-03T15:41:31;38.20;70.00
15083;DHT22;7640;53.116;6.878;2022-08-03T15:44:22;38.70;67.40
15083;DHT22;7640;53.116;6.878;2022-08-03T15:46:53;38.90;65.90
15083;DHT22;7640;53.116;6.878;2022-08-03T15:49:22;38.90;65.40
15083;DHT22;7640;53.116;6.878;2022-08-03T15:51:51;39.00;65.50
15083;DHT22;7640;53.116;6.878;2022-08-03T15:54:19;39.00;65.80
15083;DHT22;7640;53.116;6.878;2022-08-03T15:56:47;39.20;65.60
15083;DHT22;7640;53.116;6.878;2022-08-03T15:59:15;39.40;66.60
15083;DHT22;7640;53.116;6.878;2022-08-03T16:01:45;39.80;65.80
15083;DHT22;7640;53.116;6.878;2022-08-03T16:04:14;40.30;65.30
15083;DHT22;7640;53.116;6.878;2022-08-03T16:06:44;40.60;64.20
15083;DHT22;7640;53.116;6.878;2022-08-03T16:09:12;40.80;63.90
15083;DHT22;7640;53.116;6.878;2022-08-03T16:12:01;40.90;63.90
15083;DHT22;7640;53.116;6.878;2022-08-03T16:14:29;41.00;64.00
15083;DHT22;7640;53.116;6.878;2022-08-03T16:17:12;41.20;63.40
15083;DHT22;7640;53.116;6.878;2022-08-03T16:19:40;41.30;62.90
15083;DHT22;7640;53.116;6.878;2022-08-03T16:22:10;41.40;62.70
15083;DHT22;7640;53.116;6.878;2022-08-03T16:24:40;41.60;62.30
15083;DHT22;7640;53.116;6.878;2022-08-03T16:27:10;41.80;62.00
15083;DHT22;7640;53.116;6.878;2022-08-03T16:29:58;41.90;62.00
15083;DHT22;7640;53.116;6.878;2022-08-03T16:32:26;41.80;61.70